Terminal Aerodrome Forecast
Issued by NWS Spokane, WA

Home | Current Version | Previous Version | Text Only | Print | Product List | Glossary On
Versions: 1 2 3 4 5 6 7 8 9 10 11 12 13 14 15 16 17 18 19 20 21 22 23 24
000
FTUS46 KOTX 200520
TAFEAT
TAF
KEAT 200520Z 2006/2106 30012KT P6SM FEW200 SCT250
     FM201500 29008KT P6SM SCT150 BKN200
     FM201900 29007KT P6SM SCT100 BKN120
     FM202100 30012KT P6SM SCT100=

USA.gov is the U.S. government's official web portal to all federal, state and local government web resources and services.